Syria, Indiana
Current Conditions -  °F | °C
As of 9:53 PM on Monday 20 Oct 2014 (Local Time) from KBMG Reporting Station
Clear Clear  
Wind Chill: 58°   Ceiling: Unl
Heat Index: 58°   Visibility: 10mi
Dew Point: 45°   Wind: 5mph
Humidity: 62%   Direction: 300°WNW
Pressure: 29.94"   Gusts: NA
Location:  38.6433°N, 86.4481°W
Report Text: KBMG 210153Z AUTO 30004KT 10SM CLR 14/07 A2994 RMK AO2 SLP136 T01440072 $
Loading
Personal Weather Stations






























Interactive Weather Map New forecast layout! Learn more

10-Day Weather Forecast

Advertisements
Track Severe Weather on mobile